Time;durP1;ratioP1;P1;durP2;ratioP2;P2;SDS_P1;SDS_P2;PMS_P1;PMS_P2;Temp;Humidity;BMP_temperature;BMP_pressure;BME280_temperature;BME280_humidity;BME280_pressure;Samples;Min_cycle;Max_cycle;Signal;HPM_P1;HPM_P2
2022/11/22 00:00:57;;;;;;;;;;;11.10;69.30;;;;;;5033084;28;19995;-49
2022/11/22 00:03:23;;;;;;;;;;;11.10;69.30;;;;;;5025030;28;19925;-46
2022/11/22 00:05:52;;;;;;;;;;;11.10;69.40;;;;;;5031494;28;20060;-45
2022/11/22 00:08:21;;;;;;;;;;;11.10;69.40;;;;;;5023046;28;19925;-46
2022/11/22 00:10:48;;;;;;;;;;;11.10;69.40;;;;;;5024637;28;19968;-46
2022/11/22 00:13:17;;;;;;;;;;;11.10;69.40;;;;;;5033381;28;19979;-45
2022/11/22 00:15:56;;;;;;;;;;;11.10;69.30;;;;;;5030842;28;19984;-46
2022/11/22 00:18:23;;;;;;;;;;;11.10;69.40;;;;;;5032590;28;19971;-46
2022/11/22 00:20:52;;;;;;;;;;;11.10;69.40;;;;;;5024357;28;19925;-46
2022/11/22 00:23:19;;;;;;;;;;;11.10;69.40;;;;;;5026792;28;20037;-48
2022/11/22 00:25:45;;;;;;;;;;;11.10;69.50;;;;;;5028192;28;19925;-47
2022/11/22 00:28:16;;;;;;;;;;;11.20;69.60;;;;;;5023736;28;19960;-46
2022/11/22 00:30:43;;;;;;;;;;;11.20;69.60;;;;;;5024015;28;20357;-47
2022/11/22 00:33:12;;;;;;;;;;;11.20;69.60;;;;;;5033044;28;19924;-46
2022/11/22 00:35:44;;;;;;;;;;;11.20;69.60;;;;;;5028722;28;20372;-47
2022/11/22 00:38:10;;;;;;;;;;;11.20;69.60;;;;;;5032476;28;20286;-46
2022/11/22 00:40:41;;;;;;;;;;;11.20;69.60;;;;;;5024241;28;19971;-46
2022/11/22 00:43:10;;;;;;;;;;;11.20;69.60;;;;;;5032654;28;20048;-45
2022/11/22 00:45:39;;;;;;;;;;;11.20;69.60;;;;;;5028680;28;20307;-46
2022/11/22 00:48:09;;;;;;;;;;;11.20;69.50;;;;;;5028594;28;19926;-46
2022/11/22 00:50:36;;;;;;;;;;;11.30;69.50;;;;;;5023488;28;19925;-46
2022/11/22 00:53:05;;;;;;;;;;;11.30;69.50;;;;;;5016392;28;19999;-45
2022/11/22 00:55:31;;;;;;;;;;;11.20;69.30;;;;;;5012295;28;20401;-46
2022/11/22 00:57:58;;;;;;;;;;;11.20;69.20;;;;;;5014646;28;19936;-49
2022/11/22 01:00:27;;;;;;;;;;;11.20;69.10;;;;;;5023232;28;19932;-46
2022/11/22 01:02:54;;;;;;;;;;;11.20;69.10;;;;;;5023161;28;20379;-46
2022/11/22 01:05:40;;;;;;;;;;;11.10;69.00;;;;;;5030947;28;19979;-45
2022/11/22 01:08:07;;;;;;;;;;;11.10;69.00;;;;;;5023218;28;19979;-46
2022/11/22 01:10:36;;;;;;;;;;;11.10;69.00;;;;;;5032211;28;19987;-45
2022/11/22 01:13:03;;;;;;;;;;;11.00;69.00;;;;;;5029188;28;19925;-48
2022/11/22 01:15:30;;;;;;;;;;;11.00;69.00;;;;;;5025877;28;19925;-46
2022/11/22 01:17:57;;;;;;;;;;;11.00;69.00;;;;;;5029863;28;19925;-46
2022/11/22 01:20:31;;;;;;;;;;;10.90;69.00;;;;;;5032009;28;19925;-45
2022/11/22 01:22:58;;;;;;;;;;;10.90;69.00;;;;;;5020712;28;20019;-46
2022/11/22 01:25:29;;;;;;;;;;;10.80;69.00;;;;;;5025898;28;19933;-45
2022/11/22 01:27:58;;;;;;;;;;;10.80;69.00;;;;;;5029318;28;19932;-46
2022/11/22 01:30:26;;;;;;;;;;;10.80;69.00;;;;;;5031629;28;20473;-46
2022/11/22 01:32:56;;;;;;;;;;;10.70;69.00;;;;;;5019928;28;19972;-47
2022/11/22 01:35:23;;;;;;;;;;;10.70;69.10;;;;;;5025776;28;19961;-48
2022/11/22 01:37:52;;;;;;;;;;;10.70;69.10;;;;;;5028213;28;19936;-45
2022/11/22 01:40:18;;;;;;;;;;;10.60;69.70;;;;;;5028575;28;19929;-45
2022/11/22 01:42:52;;;;;;;;;;;10.60;69.10;;;;;;5020337;28;19936;-46
2022/11/22 01:45:28;;;;;;;;;;;10.60;69.20;;;;;;5023092;28;19925;-47
2022/11/22 01:48:03;;;;;;;;;;;10.50;69.20;;;;;;5030959;28;20528;-47
2022/11/22 01:50:32;;;;;;;;;;;10.50;69.20;;;;;;5023207;28;19925;-45
2022/11/22 01:53:04;;;;;;;;;;;10.40;69.20;;;;;;5019752;28;19926;-46
2022/11/22 01:55:31;;;;;;;;;;;10.40;69.30;;;;;;5011771;28;20048;-45
2022/11/22 01:58:03;;;;;;;;;;;10.40;69.30;;;;;;5014275;28;19948;-45
2022/11/22 02:00:33;;;;;;;;;;;10.40;69.20;;;;;;5023054;28;20053;-45
2022/11/22 02:03:00;;;;;;;;;;;10.30;69.20;;;;;;5029216;28;19925;-46
2022/11/22 02:05:30;;;;;;;;;;;10.30;69.20;;;;;;5007514;28;19932;-47
2022/11/22 02:07:59;;;;;;;;;;;10.30;69.20;;;;;;5030722;28;19983;-45
2022/11/22 02:10:27;;;;;;;;;;;10.20;69.20;;;;;;5021532;28;19929;-46
2022/11/22 02:13:01;;;;;;;;;;;10.20;69.40;;;;;;5022643;28;19980;-46
2022/11/22 02:15:27;;;;;;;;;;;10.20;69.40;;;;;;5030730;28;19925;-45
2022/11/22 02:17:57;;;;;;;;;;;10.10;69.50;;;;;;5029117;28;19925;-46
2022/11/22 02:20:26;;;;;;;;;;;10.10;69.50;;;;;;5010886;28;19925;-46
2022/11/22 02:23:05;;;;;;;;;;;10.10;69.60;;;;;;5027580;28;19925;-45
2022/11/22 02:25:37;;;;;;;;;;;10.10;69.60;;;;;;5011162;28;19925;-46
2022/11/22 02:28:11;;;;;;;;;;;10.00;69.60;;;;;;5024854;28;19956;-45
2022/11/22 02:30:43;;;;;;;;;;;10.10;69.70;;;;;;5023359;28;20020;-45
2022/11/22 02:33:10;;;;;;;;;;;10.00;69.70;;;;;;5030851;28;19925;-45
2022/11/22 02:35:38;;;;;;;;;;;10.10;69.80;;;;;;5026545;28;19972;-46
2022/11/22 02:38:08;;;;;;;;;;;10.00;69.70;;;;;;5024732;28;19932;-46
2022/11/22 02:40:39;;;;;;;;;;;10.00;69.70;;;;;;5023947;28;19925;-46
2022/11/22 02:43:07;;;;;;;;;;;10.00;69.80;;;;;;5029916;28;19953;-46
2022/11/22 02:45:39;;;;;;;;;;;10.00;69.90;;;;;;5028194;28;19929;-45
2022/11/22 02:48:07;;;;;;;;;;;10.00;69.80;;;;;;5027531;28;19995;-45
2022/11/22 02:50:36;;;;;;;;;;;10.00;69.90;;;;;;5025756;28;19925;-46
2022/11/22 02:53:09;;;;;;;;;;;10.00;69.90;;;;;;5022464;28;20393;-46
2022/11/22 02:55:38;;;;;;;;;;;10.00;69.90;;;;;;5023220;28;19925;-45
2022/11/22 02:58:07;;;;;;;;;;;10.00;69.90;;;;;;5021554;28;19971;-45
2022/11/22 03:00:41;;;;;;;;;;;9.90;69.70;;;;;;5022010;28;20115;-46
2022/11/22 03:03:08;;;;;;;;;;;9.90;69.70;;;;;;5030836;28;19929;-46
2022/11/22 03:05:42;;;;;;;;;;;9.90;69.70;;;;;;5025003;28;20556;-46
2022/11/22 03:08:10;;;;;;;;;;;9.90;69.50;;;;;;5029926;28;19925;-46
2022/11/22 03:10:39;;;;;;;;;;;9.90;69.60;;;;;;5022288;28;19960;-45
2022/11/22 03:13:08;;;;;;;;;;;9.90;69.60;;;;;;5030048;28;19948;-46
2022/11/22 03:15:34;;;;;;;;;;;9.90;69.70;;;;;;5023673;28;19935;-45
2022/11/22 03:18:02;;;;;;;;;;;9.80;69.60;;;;;;5028367;28;19975;-45
2022/11/22 03:20:30;;;;;;;;;;;9.80;69.60;;;;;;5024399;28;19929;-45
2022/11/22 03:22:58;;;;;;;;;;;9.80;69.60;;;;;;5023957;28;19980;-47
2022/11/22 03:25:25;;;;;;;;;;;9.80;69.70;;;;;;5027864;28;20377;-46
2022/11/22 03:27:51;;;;;;;;;;;9.80;69.70;;;;;;5023891;28;20025;-46
2022/11/22 03:30:19;;;;;;;;;;;9.80;69.70;;;;;;5033720;28;19929;-45
2022/11/22 03:32:50;;;;;;;;;;;9.70;69.70;;;;;;5027429;28;20016;-47
2022/11/22 03:35:17;;;;;;;;;;;9.70;69.60;;;;;;5030626;28;19929;-46
2022/11/22 03:37:45;;;;;;;;;;;9.70;69.60;;;;;;5025337;28;19925;-45
2022/11/22 03:40:12;;;;;;;;;;;9.70;69.60;;;;;;5033694;28;20384;-46
2022/11/22 03:42:38;;;;;;;;;;;9.70;69.70;;;;;;5022742;28;19929;-46
2022/11/22 03:45:12;;;;;;;;;;;9.70;69.70;;;;;;5024994;28;19925;-45
2022/11/22 03:47:42;;;;;;;;;;;9.70;69.70;;;;;;5033594;28;19928;-45
2022/11/22 03:50:08;;;;;;;;;;;9.60;69.60;;;;;;5030995;28;19936;-45
2022/11/22 03:52:35;;;;;;;;;;;9.60;69.70;;;;;;5014767;28;20556;-46
2022/11/22 03:55:04;;;;;;;;;;;9.60;69.70;;;;;;5023999;28;20012;-46
2022/11/22 03:57:34;;;;;;;;;;;9.60;69.70;;;;;;5019158;28;19925;-45
2022/11/22 04:00:00;;;;;;;;;;;9.60;69.70;;;;;;4996246;28;19969;-47
2022/11/22 04:02:39;;;;;;;;;;;9.60;69.70;;;;;;5030774;28;19925;-46
2022/11/22 04:05:06;;;;;;;;;;;9.50;69.60;;;;;;5024883;28;19929;-50
2022/11/22 04:07:37;;;;;;;;;;;9.50;69.60;;;;;;5033141;28;19925;-45
2022/11/22 04:10:04;;;;;;;;;;;9.50;69.60;;;;;;5032613;28;19931;-46
2022/11/22 04:12:34;;;;;;;;;;;9.50;69.60;;;;;;5021637;28;19925;-46
2022/11/22 04:15:06;;;;;;;;;;;9.50;69.60;;;;;;5025005;28;19932;-47
2022/11/22 04:17:39;;;;;;;;;;;9.50;69.60;;;;;;5032999;28;19929;-45
2022/11/22 04:23:14;;;;;;;;;;;9.40;69.50;;;;;;5020536;28;20430;-45
2022/11/22 04:25:47;;;;;;;;;;;9.40;69.50;;;;;;5016511;28;20420;-47
2022/11/22 04:28:15;;;;;;;;;;;9.40;69.50;;;;;;5018821;28;19925;-45
2022/11/22 04:33:29;;;;;;;;;;;9.30;69.50;;;;;;5025074;28;19930;-47
2022/11/22 04:35:58;;;;;;;;;;;9.30;69.60;;;;;;5030635;28;19929;-46
2022/11/22 04:38:27;;;;;;;;;;;9.30;69.60;;;;;;5032291;28;20003;-46
2022/11/22 04:40:55;;;;;;;;;;;9.30;69.60;;;;;;5021003;28;19953;-48
2022/11/22 04:46:09;;;;;;;;;;;9.30;69.60;;;;;;5031467;28;19932;-46
2022/11/22 04:48:38;;;;;;;;;;;9.20;69.60;;;;;;5026088;28;20389;-46
2022/11/22 04:53:59;;;;;;;;;;;9.20;69.60;;;;;;5012335;28;19929;-46
2022/11/22 04:56:29;;;;;;;;;;;9.20;69.60;;;;;;5014321;28;19971;-45
2022/11/22 04:58:56;;;;;;;;;;;9.20;69.60;;;;;;5029836;28;19929;-46
2022/11/22 05:01:30;;;;;;;;;;;9.20;69.60;;;;;;5024012;28;19931;-46
2022/11/22 05:03:59;;;;;;;;;;;9.20;69.60;;;;;;5032198;28;19936;-46
2022/11/22 05:06:27;;;;;;;;;;;9.10;69.50;;;;;;5021544;28;20372;-46
2022/11/22 05:08:53;;;;;;;;;;;9.10;69.50;;;;;;5025074;28;19961;-45
2022/11/22 05:11:21;;;;;;;;;;;9.10;69.50;;;;;;5023625;28;19936;-47
2022/11/22 05:13:50;;;;;;;;;;;9.10;69.50;;;;;;5032107;28;19983;-45
2022/11/22 05:16:22;;;;;;;;;;;9.10;69.50;;;;;;5027972;28;19979;-45
2022/11/22 05:19:02;;;;;;;;;;;9.10;69.50;;;;;;5031003;28;20417;-45
2022/11/22 05:21:28;;;;;;;;;;;9.10;69.50;;;;;;5025660;28;19925;-45
2022/11/22 05:23:55;;;;;;;;;;;9.00;69.40;;;;;;5022045;28;19926;-45
2022/11/22 05:26:23;;;;;;;;;;;9.00;69.40;;;;;;5029172;28;19969;-45
2022/11/22 05:28:52;;;;;;;;;;;9.00;69.50;;;;;;5022670;28;19925;-46
2022/11/22 05:31:23;;;;;;;;;;;9.00;69.50;;;;;;5024439;28;19935;-46
2022/11/22 05:33:51;;;;;;;;;;;9.00;69.50;;;;;;5028769;28;19952;-48
2022/11/22 05:36:21;;;;;;;;;;;8.90;69.50;;;;;;5027424;28;19931;-45
2022/11/22 05:38:51;;;;;;;;;;;8.90;69.50;;;;;;5023272;28;19925;-46
2022/11/22 05:41:20;;;;;;;;;;;8.90;69.50;;;;;;5031455;28;19925;-46
2022/11/22 05:43:48;;;;;;;;;;;8.90;69.60;;;;;;5026370;28;19929;-45
2022/11/22 05:46:25;;;;;;;;;;;8.90;69.60;;;;;;5027175;28;20286;-46
2022/11/22 05:48:53;;;;;;;;;;;8.90;69.60;;;;;;5022469;28;20577;-47
2022/11/22 05:51:26;;;;;;;;;;;8.90;69.50;;;;;;5026178;28;19997;-45
2022/11/22 05:53:59;;;;;;;;;;;8.90;69.60;;;;;;5021905;28;20012;-46
2022/11/22 05:56:26;;;;;;;;;;;8.80;69.50;;;;;;5022195;28;19925;-46
2022/11/22 05:58:55;;;;;;;;;;;8.80;69.50;;;;;;5028489;28;19931;-46
2022/11/22 06:01:23;;;;;;;;;;;8.80;69.50;;;;;;5029338;28;19932;-45
2022/11/22 06:03:49;;;;;;;;;;;8.80;69.50;;;;;;5022558;28;20282;-46
2022/11/22 06:06:16;;;;;;;;;;;8.80;69.40;;;;;;5030897;28;19957;-45
2022/11/22 06:08:46;;;;;;;;;;;8.70;69.40;;;;;;5022869;28;19931;-45
2022/11/22 06:11:16;;;;;;;;;;;8.70;69.40;;;;;;5030634;28;20027;-45
2022/11/22 06:13:44;;;;;;;;;;;8.70;69.40;;;;;;5030335;28;19968;-45
2022/11/22 06:16:11;;;;;;;;;;;8.70;69.40;;;;;;5022724;28;19971;-48
2022/11/22 06:18:43;;;;;;;;;;;8.70;69.40;;;;;;5030802;28;20404;-45
2022/11/22 06:21:11;;;;;;;;;;;8.70;70.10;;;;;;5026311;28;19944;-45
2022/11/22 06:23:39;;;;;;;;;;;8.60;69.40;;;;;;5017207;28;19996;-45
2022/11/22 06:26:12;;;;;;;;;;;8.60;69.40;;;;;;5026702;28;19926;-45
2022/11/22 06:28:41;;;;;;;;;;;8.60;69.40;;;;;;5019208;28;20012;-46
2022/11/22 06:31:12;;;;;;;;;;;8.60;69.40;;;;;;5011069;28;19933;-45
2022/11/22 06:33:42;;;;;;;;;;;8.60;69.40;;;;;;5019698;28;19925;-46
2022/11/22 06:36:10;;;;;;;;;;;8.60;69.40;;;;;;5029208;28;19925;-46
2022/11/22 06:38:42;;;;;;;;;;;8.60;69.40;;;;;;5026381;28;19979;-45
2022/11/22 06:41:18;;;;;;;;;;;8.50;69.40;;;;;;5023762;28;19936;-46
2022/11/22 06:43:45;;;;;;;;;;;8.50;69.40;;;;;;5014616;28;19957;-45
2022/11/22 06:46:15;;;;;;;;;;;8.50;69.40;;;;;;5018432;28;19937;-46
2022/11/22 06:48:52;;;;;;;;;;;8.50;69.40;;;;;;5014124;28;19935;-46
2022/11/22 06:51:20;;;;;;;;;;;8.50;69.40;;;;;;5017251;28;20365;-45
2022/11/22 06:53:47;;;;;;;;;;;8.50;69.40;;;;;;5011224;28;20377;-47
2022/11/22 06:56:25;;;;;;;;;;;8.50;69.40;;;;;;5011679;28;19925;-45
2022/11/22 06:58:53;;;;;;;;;;;8.50;69.40;;;;;;5023579;28;19929;-46
2022/11/22 07:01:21;;;;;;;;;;;8.50;69.40;;;;;;5024105;28;20346;-45
2022/11/22 07:03:48;;;;;;;;;;;8.50;69.50;;;;;;5026764;28;19933;-45
2022/11/22 07:06:15;;;;;;;;;;;8.40;69.40;;;;;;5025105;28;20373;-48
2022/11/22 07:08:42;;;;;;;;;;;8.40;69.40;;;;;;5042376;23;19925;-47
2022/11/22 07:11:13;;;;;;;;;;;8.40;69.40;;;;;;4986765;28;20017;-47
2022/11/22 07:13:42;;;;;;;;;;;8.40;69.40;;;;;;4995577;28;20024;-48
2022/11/22 07:16:09;;;;;;;;;;;8.40;69.40;;;;;;4995451;28;19926;-47
2022/11/22 07:18:38;;;;;;;;;;;8.40;69.40;;;;;;4985679;28;19926;-48
2022/11/22 07:21:05;;;;;;;;;;;8.40;69.40;;;;;;5011399;28;19932;-48
2022/11/22 07:23:39;;;;;;;;;;;8.40;69.40;;;;;;5003297;28;20020;-47
2022/11/22 07:26:06;;;;;;;;;;;8.40;69.50;;;;;;5010995;28;20012;-48
2022/11/22 07:28:32;;;;;;;;;;;8.40;69.50;;;;;;5011027;28;20309;-47
2022/11/22 07:31:02;;;;;;;;;;;8.40;69.50;;;;;;5013140;28;19933;-47
2022/11/22 07:33:30;;;;;;;;;;;8.40;69.60;;;;;;5005985;28;19950;-51
2022/11/22 07:36:03;;;;;;;;;;;8.40;69.60;;;;;;5013356;28;19937;-47
2022/11/22 07:38:32;;;;;;;;;;;8.40;69.70;;;;;;5006413;28;20028;-48
2022/11/22 07:41:07;;;;;;;;;;;8.40;69.70;;;;;;5006356;28;19932;-50
2022/11/22 07:43:37;;;;;;;;;;;8.40;69.70;;;;;;5014604;28;19929;-50
2022/11/22 07:46:05;;;;;;;;;;;8.40;69.70;;;;;;5014085;28;20028;-49
2022/11/22 07:48:31;;;;;;;;;;;8.50;69.80;;;;;;5004027;28;19926;-50
2022/11/22 07:51:06;;;;;;;;;;;8.50;69.80;;;;;;5004348;28;20309;-48
2022/11/22 07:53:41;;;;;;;;;;;8.50;69.80;;;;;;4994795;28;19989;-48
2022/11/22 07:56:08;;;;;;;;;;;8.50;69.90;;;;;;5000440;28;19925;-47
2022/11/22 07:58:36;;;;;;;;;;;8.50;69.80;;;;;;5004925;28;19965;-50
2022/11/22 08:01:07;;;;;;;;;;;8.60;70.00;;;;;;5006088;28;19956;-47
2022/11/22 08:03:34;;;;;;;;;;;8.60;70.00;;;;;;5011693;28;19929;-49
2022/11/22 08:06:05;;;;;;;;;;;8.60;70.20;;;;;;5012328;28;20451;-47
2022/11/22 08:08:33;;;;;;;;;;;8.70;70.30;;;;;;5005608;28;20385;-49
2022/11/22 08:10:59;;;;;;;;;;;8.80;70.40;;;;;;5013931;28;19961;-49
2022/11/22 08:13:28;;;;;;;;;;;8.80;70.40;;;;;;5007027;28;20404;-48
2022/11/22 08:16:00;;;;;;;;;;;8.90;70.40;;;;;;5009917;28;19952;-51
2022/11/22 08:18:31;;;;;;;;;;;9.00;70.30;;;;;;5007687;28;20294;-48
2022/11/22 08:21:08;;;;;;;;;;;9.00;70.00;;;;;;5013252;28;19933;-47
2022/11/22 08:23:35;;;;;;;;;;;9.10;69.90;;;;;;5001748;28;20329;-50
2022/11/22 08:26:05;;;;;;;;;;;9.10;69.80;;;;;;5011218;28;19933;-48
2022/11/22 08:28:34;;;;;;;;;;;9.20;69.70;;;;;;5007953;28;19933;-47
2022/11/22 08:31:05;;;;;;;;;;;9.20;69.70;;;;;;5013001;28;19925;-49
2022/11/22 08:33:34;;;;;;;;;;;9.20;69.70;;;;;;5006245;28;20431;-48
2022/11/22 08:36:00;;;;;;;;;;;9.40;69.90;;;;;;5010432;28;19929;-49
2022/11/22 08:38:29;;;;;;;;;;;9.30;69.80;;;;;;5005202;28;19972;-47
2022/11/22 08:40:56;;;;;;;;;;;9.40;69.90;;;;;;5013536;28;20024;-48
2022/11/22 08:43:22;;;;;;;;;;;9.40;69.80;;;;;;5011643;28;19926;-50
2022/11/22 08:45:53;;;;;;;;;;;9.50;69.80;;;;;;5024868;28;20301;-47
2022/11/22 08:48:21;;;;;;;;;;;9.60;69.90;;;;;;5005996;28;19933;-48
2022/11/22 08:50:49;;;;;;;;;;;9.60;69.90;;;;;;5007426;28;19949;-51
2022/11/22 08:53:21;;;;;;;;;;;9.70;69.90;;;;;;4997227;28;19925;-51
2022/11/22 08:55:48;;;;;;;;;;;9.80;69.80;;;;;;5001909;28;19971;-51
2022/11/22 08:58:17;;;;;;;;;;;9.80;69.70;;;;;;4993635;28;19933;-48
2022/11/22 09:00:44;;;;;;;;;;;9.90;69.70;;;;;;4993146;28;19926;-49
2022/11/22 09:03:11;;;;;;;;;;;10.00;69.70;;;;;;5000730;28;20316;-51
2022/11/22 09:05:37;;;;;;;;;;;10.00;69.60;;;;;;5005937;28;20013;-48
2022/11/22 09:08:28;;;;;;;;;;;10.10;69.60;;;;;;4993286;28;19932;-48
2022/11/22 09:11:03;;;;;;;;;;;10.20;69.60;;;;;;4999739;28;19925;-51
2022/11/22 09:13:29;;;;;;;;;;;10.20;69.50;;;;;;4998903;28;20298;-48
2022/11/22 09:16:08;;;;;;;;;;;10.30;69.30;;;;;;5001063;28;19926;-47
2022/11/22 09:18:34;;;;;;;;;;;10.40;69.20;;;;;;4993172;28;19930;-51
2022/11/22 09:21:05;;;;;;;;;;;10.50;69.30;;;;;;4997736;28;20412;-48
2022/11/22 09:23:32;;;;;;;;;;;10.50;68.90;;;;;;5007480;28;19925;-51
2022/11/22 09:26:06;;;;;;;;;;;10.60;68.50;;;;;;5004497;28;20021;-51
2022/11/22 09:28:37;;;;;;;;;;;10.60;68.40;;;;;;5011193;28;19933;-48
2022/11/22 09:31:08;;;;;;;;;;;10.60;68.10;;;;;;5008619;28;20028;-47
2022/11/22 09:33:38;;;;;;;;;;;10.60;68.00;;;;;;5000202;28;19933;-49
2022/11/22 09:36:11;;;;;;;;;;;10.50;67.90;;;;;;5011862;28;19932;-48
2022/11/22 09:38:37;;;;;;;;;;;10.50;67.90;;;;;;5010438;28;19932;-49
2022/11/22 09:41:14;;;;;;;;;;;10.50;67.90;;;;;;5011655;28;19960;-47
2022/11/22 09:44:02;;;;;;;;;;;10.50;68.10;;;;;;5004301;28;19956;-48
2022/11/22 09:46:39;;;;;;;;;;;10.50;68.10;;;;;;5012284;28;19931;-50
2022/11/22 09:49:05;;;;;;;;;;;10.60;68.40;;;;;;5002955;28;19934;-51
2022/11/22 09:51:34;;;;;;;;;;;10.60;68.40;;;;;;5003921;28;19926;-48
2022/11/22 09:54:12;;;;;;;;;;;10.60;68.30;;;;;;4991491;28;21275;-49
2022/11/22 09:56:42;;;;;;;;;;;10.70;68.30;;;;;;4992406;28;20309;-48
2022/11/22 09:59:14;;;;;;;;;;;10.70;68.10;;;;;;5006075;28;19929;-48
2022/11/22 10:01:49;;;;;;;;;;;10.70;68.10;;;;;;5004415;28;19933;-47
2022/11/22 10:04:25;;;;;;;;;;;10.70;68.10;;;;;;4992585;28;19925;-49
2022/11/22 10:06:54;;;;;;;;;;;10.80;68.20;;;;;;5001320;28;19925;-47
2022/11/22 10:09:23;;;;;;;;;;;10.80;68.30;;;;;;5007194;28;20301;-49
2022/11/22 10:11:59;;;;;;;;;;;10.90;68.40;;;;;;5003808;28;19980;-49
2022/11/22 10:14:45;;;;;;;;;;;10.90;68.50;;;;;;4998866;28;19972;-48
2022/11/22 10:17:38;;;;;;;;;;;11.00;68.50;;;;;;5006188;28;19926;-47
2022/11/22 10:20:11;;;;;;;;;;;11.10;68.70;;;;;;5003482;28;19988;-48
2022/11/22 10:22:40;;;;;;;;;;;11.10;68.60;;;;;;5004719;28;20028;-47
2022/11/22 10:25:13;;;;;;;;;;;11.20;68.50;;;;;;5005521;28;20634;-48
2022/11/22 10:27:43;;;;;;;;;;;11.30;68.50;;;;;;5003073;28;19988;-50
2022/11/22 10:30:16;;;;;;;;;;;11.40;68.50;;;;;;4999958;28;19925;-48
2022/11/22 10:33:14;;;;;;;;;;;11.40;68.40;;;;;;4992423;28;19977;-48
2022/11/22 10:35:59;;;;;;;;;;;11.50;68.30;;;;;;4997723;28;19930;-50
2022/11/22 10:38:47;;;;;;;;;;;11.60;68.10;;;;;;5007400;28;19926;-48
2022/11/22 10:41:22;;;;;;;;;;;11.60;68.00;;;;;;4996193;28;19926;-49
2022/11/22 10:43:54;;;;;;;;;;;11.70;67.90;;;;;;5006848;28;19932;-51
2022/11/22 10:46:49;;;;;;;;;;;11.70;67.70;;;;;;5011936;28;19972;-48
2022/11/22 10:49:38;;;;;;;;;;;11.70;67.70;;;;;;5000188;28;19925;-51
2022/11/22 10:52:32;;;;;;;;;;;11.80;67.60;;;;;;5005671;28;20610;-49
2022/11/22 10:55:21;;;;;;;;;;;11.90;67.50;;;;;;5012400;28;19948;-52
2022/11/22 10:57:56;;;;;;;;;;;11.90;67.20;;;;;;5007136;28;20420;-52
2022/11/22 11:00:30;;;;;;;;;;;11.90;67.30;;;;;;5013451;28;20363;-51
2022/11/22 11:03:04;;;;;;;;;;;12.00;67.40;;;;;;5012016;28;21160;-46
2022/11/22 11:05:42;;;;;;;;;;;12.10;67.60;;;;;;5013400;28;19929;-49
2022/11/22 11:08:45;;;;;;;;;;;12.10;67.30;;;;;;5003492;28;19926;-50
2022/11/22 11:11:33;;;;;;;;;;;12.10;67.10;;;;;;4995540;28;19926;-52
2022/11/22 11:14:03;;;;;;;;;;;12.20;67.10;;;;;;5010415;28;19950;-51
2022/11/22 11:16:34;;;;;;;;;;;12.20;66.90;;;;;;5006637;28;19925;-47
2022/11/22 11:19:09;;;;;;;;;;;12.20;66.90;;;;;;5014745;28;19926;-47
2022/11/22 11:21:38;;;;;;;;;;;12.30;66.80;;;;;;5012311;28;20049;-47
2022/11/22 11:24:15;;;;;;;;;;;12.30;66.70;;;;;;5009845;28;20351;-48
2022/11/22 11:26:49;;;;;;;;;;;12.30;66.60;;;;;;5006574;28;19926;-48
2022/11/22 11:29:26;;;;;;;;;;;12.30;66.30;;;;;;5014746;28;19929;-52
2022/11/22 11:32:07;;;;;;;;;;;12.40;66.60;;;;;;5012396;28;19975;-48
2022/11/22 11:34:34;;;;;;;;;;;12.40;66.50;;;;;;5013946;28;19936;-48
2022/11/22 11:37:04;;;;;;;;;;;12.40;66.70;;;;;;5006466;28;19925;-52
2022/11/22 11:39:34;;;;;;;;;;;12.40;66.60;;;;;;5014464;28;19925;-48
2022/11/22 11:42:19;;;;;;;;;;;12.40;66.40;;;;;;5007195;28;19957;-48
2022/11/22 11:44:48;;;;;;;;;;;12.40;66.30;;;;;;5012811;28;20451;-48
2022/11/22 11:47:29;;;;;;;;;;;12.40;66.10;;;;;;4993553;28;19926;-47
2022/11/22 11:49:56;;;;;;;;;;;12.40;66.40;;;;;;4994642;28;20007;-48
2022/11/22 11:52:30;;;;;;;;;;;12.40;66.20;;;;;;5010238;28;19925;-48
2022/11/22 11:55:01;;;;;;;;;;;12.50;66.10;;;;;;4996797;28;19933;-47
2022/11/22 11:57:33;;;;;;;;;;;12.40;66.10;;;;;;4994777;28;20407;-48
2022/11/22 12:00:03;;;;;;;;;;;12.50;66.20;;;;;;4998653;28;19936;-51
2022/11/22 12:02:40;;;;;;;;;;;12.50;66.00;;;;;;5014141;28;20324;-49
2022/11/22 12:05:26;;;;;;;;;;;12.50;66.10;;;;;;5006105;28;19937;-47
2022/11/22 12:07:53;;;;;;;;;;;12.50;65.80;;;;;;5013957;28;19925;-48
2022/11/22 12:10:40;;;;;;;;;;;12.50;65.90;;;;;;5004122;28;19930;-48
2022/11/22 12:13:10;;;;;;;;;;;12.50;65.70;;;;;;5002774;28;19941;-50
2022/11/22 12:15:55;;;;;;;;;;;12.50;65.70;;;;;;4994477;28;19930;-47
2022/11/22 12:18:29;;;;;;;;;;;12.50;65.60;;;;;;4999031;28;20453;-48
2022/11/22 12:21:04;;;;;;;;;;;12.50;65.70;;;;;;5011528;28;19948;-49
2022/11/22 12:23:38;;;;;;;;;;;12.50;65.60;;;;;;5006389;28;19933;-52
2022/11/22 12:26:04;;;;;;;;;;;12.50;65.80;;;;;;4994081;28;20461;-52
2022/11/22 12:28:32;;;;;;;;;;;12.50;65.80;;;;;;5000684;28;19952;-48
2022/11/22 12:31:11;;;;;;;;;;;12.50;65.60;;;;;;5010003;28;20020;-48
2022/11/22 12:33:50;;;;;;;;;;;12.50;65.70;;;;;;5008611;28;19925;-49
2022/11/22 12:36:20;;;;;;;;;;;12.50;65.70;;;;;;5013468;28;20614;-51
2022/11/22 12:38:48;;;;;;;;;;;12.50;65.60;;;;;;5007034;28;19925;-51
2022/11/22 12:41:18;;;;;;;;;;;12.50;65.70;;;;;;4997444;28;19925;-48
2022/11/22 12:43:59;;;;;;;;;;;12.50;65.70;;;;;;5013496;28;19925;-50
2022/11/22 12:46:33;;;;;;;;;;;12.50;65.50;;;;;;5011196;28;20381;-48
2022/11/22 12:49:11;;;;;;;;;;;12.50;65.50;;;;;;5009593;28;19971;-50
2022/11/22 12:51:47;;;;;;;;;;;12.50;65.80;;;;;;5001698;28;19973;-51
2022/11/22 12:54:19;;;;;;;;;;;12.50;65.50;;;;;;5013249;28;19926;-51
2022/11/22 12:56:52;;;;;;;;;;;12.50;65.50;;;;;;5007191;28;20390;-49
2022/11/22 12:59:28;;;;;;;;;;;12.50;65.60;;;;;;5004051;28;19980;-48
2022/11/22 13:01:57;;;;;;;;;;;12.50;65.60;;;;;;5010854;28;20351;-47
2022/11/22 13:04:43;;;;;;;;;;;12.50;65.60;;;;;;5012014;28;20020;-48
2022/11/22 13:07:14;;;;;;;;;;;12.50;65.60;;;;;;5003543;28;20041;-52
2022/11/22 13:09:47;;;;;;;;;;;12.50;65.60;;;;;;5004386;28;19932;-48
2022/11/22 13:12:25;;;;;;;;;;;12.50;65.50;;;;;;5013257;28;20366;-48
2022/11/22 13:14:57;;;;;;;;;;;12.60;65.70;;;;;;4999802;28;19932;-48
2022/11/22 13:17:28;;;;;;;;;;;12.50;65.50;;;;;;5012330;28;19926;-48
2022/11/22 13:20:16;;;;;;;;;;;12.50;65.40;;;;;;5004106;28;19926;-51
2022/11/22 13:23:01;;;;;;;;;;;12.60;65.60;;;;;;5004145;28;19933;-52
2022/11/22 13:25:42;;;;;;;;;;;12.60;65.50;;;;;;5010429;28;20015;-47
2022/11/22 13:28:14;;;;;;;;;;;12.60;65.40;;;;;;5004483;28;19957;-51
2022/11/22 13:31:00;;;;;;;;;;;12.50;65.20;;;;;;5011168;28;20281;-48
2022/11/22 13:33:30;;;;;;;;;;;12.60;65.30;;;;;;5006380;28;20384;-46
2022/11/22 13:36:23;;;;;;;;;;;12.50;65.20;;;;;;5012021;28;20023;-50
2022/11/22 13:39:12;;;;;;;;;;;12.60;65.40;;;;;;4985176;28;19925;-51
2022/11/22 13:42:11;;;;;;;;;;;12.50;65.20;;;;;;5004670;28;19925;-49
2022/11/22 13:45:03;;;;;;;;;;;12.50;65.40;;;;;;4979801;28;19936;-48
2022/11/22 13:47:42;;;;;;;;;;;12.50;65.30;;;;;;4992629;28;19925;-47
2022/11/22 13:50:28;;;;;;;;;;;12.50;65.20;;;;;;4992099;28;19932;-51
2022/11/22 13:52:56;;;;;;;;;;;12.50;65.10;;;;;;4999747;28;20365;-48
2022/11/22 13:55:28;;;;;;;;;;;12.40;65.20;;;;;;4998138;28;20012;-52
2022/11/22 13:58:35;;;;;;;;;;;12.40;65.10;;;;;;4994295;28;19929;-51
2022/11/22 14:01:01;;;;;;;;;;;12.40;65.00;;;;;;4995155;28;19933;-51
2022/11/22 14:03:31;;;;;;;;;;;12.40;65.20;;;;;;5002538;28;19948;-52
2022/11/22 14:06:15;;;;;;;;;;;12.40;65.30;;;;;;5009472;28;20424;-48
2022/11/22 14:08:44;;;;;;;;;;;12.40;65.30;;;;;;5012059;28;20496;-52
2022/11/22 14:11:13;;;;;;;;;;;12.40;65.60;;;;;;5007051;28;20283;-52
2022/11/22 14:13:47;;;;;;;;;;;12.50;65.60;;;;;;4996442;28;19925;-52
2022/11/22 14:16:22;;;;;;;;;;;12.40;65.40;;;;;;5003436;28;19929;-50
2022/11/22 14:18:57;;;;;;;;;;;12.40;65.50;;;;;;5008612;28;19932;-51
2022/11/22 14:21:24;;;;;;;;;;;12.40;65.50;;;;;;5011569;28;20463;-52
2022/11/22 14:23:56;;;;;;;;;;;12.50;65.40;;;;;;5003016;28;19956;-50
2022/11/22 14:26:31;;;;;;;;;;;12.40;66.00;;;;;;4992508;28;19984;-52
2022/11/22 14:29:00;;;;;;;;;;;12.50;65.50;;;;;;4995208;28;19926;-50
2022/11/22 14:31:30;;;;;;;;;;;12.50;65.50;;;;;;5007776;28;20408;-51
2022/11/22 14:34:17;;;;;;;;;;;12.50;65.60;;;;;;5002927;28;19926;-48
2022/11/22 14:37:27;;;;;;;;;;;12.50;65.60;;;;;;5011676;28;19967;-48
2022/11/22 14:40:05;;;;;;;;;;;12.50;65.50;;;;;;4950087;29;19930;-50
2022/11/22 14:42:35;;;;;;;;;;;12.50;65.60;;;;;;4951118;29;19926;-50
2022/11/22 14:45:11;;;;;;;;;;;12.50;65.50;;;;;;4974699;28;20012;-52
2022/11/22 14:47:39;;;;;;;;;;;12.50;65.40;;;;;;5003305;28;19926;-52
2022/11/22 14:50:24;;;;;;;;;;;12.50;65.60;;;;;;5007562;28;19933;-51
2022/11/22 14:52:52;;;;;;;;;;;12.50;65.50;;;;;;4992608;28;19964;-50
2022/11/22 14:55:28;;;;;;;;;;;12.40;65.50;;;;;;4992092;28;19926;-48
2022/11/22 14:57:57;;;;;;;;;;;12.40;65.50;;;;;;5001650;28;19925;-47
2022/11/22 15:00:28;;;;;;;;;;;12.40;65.60;;;;;;5003071;28;19925;-52